sensor_id;sensor_type;location;lat;lon;timestamp;P1;durP1;ratioP1;P2;durP2;ratioP2
32292;SDS011;43233;48.608;8.838;2022-12-10T00:01:07;47.37;;;22.40;;
32292;SDS011;43233;48.608;8.838;2022-12-10T00:03:35;43.40;;;23.10;;
32292;SDS011;43233;48.608;8.838;2022-12-10T00:06:02;43.53;;;22.33;;
32292;SDS011;43233;48.608;8.838;2022-12-10T00:08:29;43.10;;;22.57;;
32292;SDS011;43233;48.608;8.838;2022-12-10T00:10:55;42.83;;;22.40;;
32292;SDS011;43233;48.608;8.838;2022-12-10T00:13:20;47.23;;;22.47;;
32292;SDS011;43233;48.608;8.838;2022-12-10T00:15:46;43.37;;;21.90;;
32292;SDS011;43233;48.608;8.838;2022-12-10T00:18:12;46.27;;;23.50;;
32292;SDS011;43233;48.608;8.838;2022-12-10T00:20:38;51.77;;;24.03;;
32292;SDS011;43233;48.608;8.838;2022-12-10T00:23:04;52.40;;;25.50;;
32292;SDS011;43233;48.608;8.838;2022-12-10T00:25:29;53.07;;;23.40;;
32292;SDS011;43233;48.608;8.838;2022-12-10T00:27:57;53.20;;;24.73;;
32292;SDS011;43233;48.608;8.838;2022-12-10T00:30:22;49.00;;;27.03;;
32292;SDS011;43233;48.608;8.838;2022-12-10T00:32:48;62.27;;;30.80;;
32292;SDS011;43233;48.608;8.838;2022-12-10T00:35:14;75.07;;;35.97;;
32292;SDS011;43233;48.608;8.838;2022-12-10T00:37:39;82.87;;;40.40;;
32292;SDS011;43233;48.608;8.838;2022-12-10T00:40:05;85.07;;;38.43;;
32292;SDS011;43233;48.608;8.838;2022-12-10T00:42:31;98.60;;;44.40;;
32292;SDS011;43233;48.608;8.838;2022-12-10T00:44:57;114.87;;;47.63;;
32292;SDS011;43233;48.608;8.838;2022-12-10T00:47:22;91.57;;;40.40;;
32292;SDS011;43233;48.608;8.838;2022-12-10T00:49:48;85.50;;;38.87;;
32292;SDS011;43233;48.608;8.838;2022-12-10T00:52:13;93.90;;;38.30;;
32292;SDS011;43233;48.608;8.838;2022-12-10T00:54:39;68.63;;;31.57;;
32292;SDS011;43233;48.608;8.838;2022-12-10T00:57:05;52.80;;;25.67;;
32292;SDS011;43233;48.608;8.838;2022-12-10T00:59:31;52.20;;;24.80;;
32292;SDS011;43233;48.608;8.838;2022-12-10T01:01:57;49.13;;;23.77;;
32292;SDS011;43233;48.608;8.838;2022-12-10T01:04:23;60.70;;;29.57;;
32292;SDS011;43233;48.608;8.838;2022-12-10T01:06:49;86.03;;;38.07;;
32292;SDS011;43233;48.608;8.838;2022-12-10T01:09:21;73.03;;;33.80;;
32292;SDS011;43233;48.608;8.838;2022-12-10T01:11:48;51.00;;;26.57;;
32292;SDS011;43233;48.608;8.838;2022-12-10T01:14:19;47.07;;;23.53;;
32292;SDS011;43233;48.608;8.838;2022-12-10T01:16:47;42.47;;;21.77;;
32292;SDS011;43233;48.608;8.838;2022-12-10T01:19:13;44.30;;;22.57;;
32292;SDS011;43233;48.608;8.838;2022-12-10T01:21:39;48.57;;;24.70;;
32292;SDS011;43233;48.608;8.838;2022-12-10T01:24:05;49.57;;;26.30;;
32292;SDS011;43233;48.608;8.838;2022-12-10T01:26:32;65.03;;;31.03;;
32292;SDS011;43233;48.608;8.838;2022-12-10T01:28:59;47.57;;;25.97;;
32292;SDS011;43233;48.608;8.838;2022-12-10T01:31:27;53.03;;;27.50;;
32292;SDS011;43233;48.608;8.838;2022-12-10T01:33:56;54.70;;;28.50;;
32292;SDS011;43233;48.608;8.838;2022-12-10T01:36:32;53.40;;;28.47;;
32292;SDS011;43233;48.608;8.838;2022-12-10T01:39:00;49.63;;;27.73;;
32292;SDS011;43233;48.608;8.838;2022-12-10T01:41:28;47.50;;;25.77;;
32292;SDS011;43233;48.608;8.838;2022-12-10T01:44:00;41.57;;;22.63;;
32292;SDS011;43233;48.608;8.838;2022-12-10T01:46:29;42.43;;;22.17;;
32292;SDS011;43233;48.608;8.838;2022-12-10T01:48:57;41.73;;;21.90;;
32292;SDS011;43233;48.608;8.838;2022-12-10T01:51:26;44.70;;;22.73;;
32292;SDS011;43233;48.608;8.838;2022-12-10T01:53:56;39.53;;;20.80;;
32292;SDS011;43233;48.608;8.838;2022-12-10T01:56:23;40.63;;;20.80;;
32292;SDS011;43233;48.608;8.838;2022-12-10T01:58:50;47.63;;;23.17;;
32292;SDS011;43233;48.608;8.838;2022-12-10T02:03:56;40.13;;;20.20;;
32292;SDS011;43233;48.608;8.838;2022-12-10T02:06:45;45.83;;;20.80;;
32292;SDS011;43233;48.608;8.838;2022-12-10T02:15:07;39.17;;;22.03;;
32292;SDS011;43233;48.608;8.838;2022-12-10T02:20:22;40.00;;;20.87;;
32292;SDS011;43233;48.608;8.838;2022-12-10T02:23:13;41.83;;;22.40;;
32292;SDS011;43233;48.608;8.838;2022-12-10T02:26:00;41.93;;;22.90;;
32292;SDS011;43233;48.608;8.838;2022-12-10T02:28:39;53.83;;;25.47;;
32292;SDS011;43233;48.608;8.838;2022-12-10T02:31:10;47.63;;;25.27;;
32292;SDS011;43233;48.608;8.838;2022-12-10T02:33:41;52.10;;;27.17;;
32292;SDS011;43233;48.608;8.838;2022-12-10T02:36:10;43.57;;;23.10;;
32292;SDS011;43233;48.608;8.838;2022-12-10T02:38:38;47.20;;;24.83;;
32292;SDS011;43233;48.608;8.838;2022-12-10T02:41:07;36.97;;;21.87;;
32292;SDS011;43233;48.608;8.838;2022-12-10T02:43:36;34.20;;;20.60;;
32292;SDS011;43233;48.608;8.838;2022-12-10T02:46:03;37.10;;;20.20;;
32292;SDS011;43233;48.608;8.838;2022-12-10T02:48:30;44.50;;;23.27;;
32292;SDS011;43233;48.608;8.838;2022-12-10T02:50:57;40.70;;;20.73;;
32292;SDS011;43233;48.608;8.838;2022-12-10T02:53:23;36.80;;;20.63;;
32292;SDS011;43233;48.608;8.838;2022-12-10T02:55:56;38.07;;;21.30;;
32292;SDS011;43233;48.608;8.838;2022-12-10T02:58:34;41.60;;;21.20;;
32292;SDS011;43233;48.608;8.838;2022-12-10T03:01:07;37.60;;;21.37;;
32292;SDS011;43233;48.608;8.838;2022-12-10T03:03:48;46.07;;;22.57;;
32292;SDS011;43233;48.608;8.838;2022-12-10T03:06:30;39.30;;;19.90;;
32292;SDS011;43233;48.608;8.838;2022-12-10T03:09:04;33.83;;;19.83;;
32292;SDS011;43233;48.608;8.838;2022-12-10T03:11:34;44.13;;;19.80;;
32292;SDS011;43233;48.608;8.838;2022-12-10T03:14:02;36.00;;;18.80;;
32292;SDS011;43233;48.608;8.838;2022-12-10T03:16:41;34.93;;;19.43;;
32292;SDS011;43233;48.608;8.838;2022-12-10T03:19:11;41.53;;;21.07;;
32292;SDS011;43233;48.608;8.838;2022-12-10T03:21:41;36.77;;;21.43;;
32292;SDS011;43233;48.608;8.838;2022-12-10T03:24:09;38.17;;;20.60;;
32292;SDS011;43233;48.608;8.838;2022-12-10T03:26:37;41.33;;;21.60;;
32292;SDS011;43233;48.608;8.838;2022-12-10T03:29:05;31.67;;;18.40;;
32292;SDS011;43233;48.608;8.838;2022-12-10T03:31:38;40.03;;;21.53;;
32292;SDS011;43233;48.608;8.838;2022-12-10T03:34:06;38.23;;;20.80;;
32292;SDS011;43233;48.608;8.838;2022-12-10T03:36:33;41.40;;;22.70;;
32292;SDS011;43233;48.608;8.838;2022-12-10T03:39:00;41.23;;;21.93;;
32292;SDS011;43233;48.608;8.838;2022-12-10T03:41:26;33.97;;;20.00;;
32292;SDS011;43233;48.608;8.838;2022-12-10T03:43:55;41.43;;;20.70;;
32292;SDS011;43233;48.608;8.838;2022-12-10T03:46:26;35.53;;;20.47;;
32292;SDS011;43233;48.608;8.838;2022-12-10T03:48:54;41.80;;;23.17;;
32292;SDS011;43233;48.608;8.838;2022-12-10T03:51:21;35.60;;;20.47;;
32292;SDS011;43233;48.608;8.838;2022-12-10T03:53:47;40.17;;;21.73;;
32292;SDS011;43233;48.608;8.838;2022-12-10T03:56:16;35.57;;;20.23;;
32292;SDS011;43233;48.608;8.838;2022-12-10T03:58:43;42.30;;;22.03;;
32292;SDS011;43233;48.608;8.838;2022-12-10T04:01:08;35.87;;;20.70;;
32292;SDS011;43233;48.608;8.838;2022-12-10T04:03:35;34.67;;;19.27;;
32292;SDS011;43233;48.608;8.838;2022-12-10T04:06:05;40.20;;;21.87;;
32292;SDS011;43233;48.608;8.838;2022-12-10T04:08:33;41.00;;;21.40;;
32292;SDS011;43233;48.608;8.838;2022-12-10T04:11:07;36.20;;;19.60;;
32292;SDS011;43233;48.608;8.838;2022-12-10T04:13:34;36.27;;;20.97;;
32292;SDS011;43233;48.608;8.838;2022-12-10T04:16:20;41.10;;;22.13;;
32292;SDS011;43233;48.608;8.838;2022-12-10T04:18:57;40.10;;;20.80;;
32292;SDS011;43233;48.608;8.838;2022-12-10T04:21:25;46.17;;;22.80;;
32292;SDS011;43233;48.608;8.838;2022-12-10T04:24:10;38.50;;;21.93;;
32292;SDS011;43233;48.608;8.838;2022-12-10T04:26:56;44.17;;;21.80;;
32292;SDS011;43233;48.608;8.838;2022-12-10T04:29:23;49.03;;;25.60;;
32292;SDS011;43233;48.608;8.838;2022-12-10T04:31:51;41.07;;;22.03;;
32292;SDS011;43233;48.608;8.838;2022-12-10T04:34:17;35.40;;;20.50;;
32292;SDS011;43233;48.608;8.838;2022-12-10T04:36:43;37.37;;;20.07;;
32292;SDS011;43233;48.608;8.838;2022-12-10T04:39:09;37.13;;;20.73;;
32292;SDS011;43233;48.608;8.838;2022-12-10T04:41:37;45.20;;;21.10;;
32292;SDS011;43233;48.608;8.838;2022-12-10T04:44:04;41.23;;;20.90;;
32292;SDS011;43233;48.608;8.838;2022-12-10T04:46:30;42.90;;;21.87;;
32292;SDS011;43233;48.608;8.838;2022-12-10T04:48:56;42.27;;;22.17;;
32292;SDS011;43233;48.608;8.838;2022-12-10T04:51:21;38.33;;;20.73;;
32292;SDS011;43233;48.608;8.838;2022-12-10T04:53:47;39.80;;;21.20;;
32292;SDS011;43233;48.608;8.838;2022-12-10T04:56:12;34.73;;;19.07;;
32292;SDS011;43233;48.608;8.838;2022-12-10T04:58:38;42.27;;;21.00;;
32292;SDS011;43233;48.608;8.838;2022-12-10T05:01:04;36.47;;;20.60;;
32292;SDS011;43233;48.608;8.838;2022-12-10T05:03:32;34.83;;;19.57;;
32292;SDS011;43233;48.608;8.838;2022-12-10T05:06:01;39.67;;;19.97;;
32292;SDS011;43233;48.608;8.838;2022-12-10T05:08:27;40.57;;;22.30;;
32292;SDS011;43233;48.608;8.838;2022-12-10T05:10:53;35.90;;;19.20;;
32292;SDS011;43233;48.608;8.838;2022-12-10T05:13:20;41.87;;;21.47;;
32292;SDS011;43233;48.608;8.838;2022-12-10T05:15:46;36.47;;;21.23;;
32292;SDS011;43233;48.608;8.838;2022-12-10T05:18:11;45.40;;;20.33;;
32292;SDS011;43233;48.608;8.838;2022-12-10T05:20:37;32.60;;;19.90;;
32292;SDS011;43233;48.608;8.838;2022-12-10T05:23:03;38.63;;;20.80;;
32292;SDS011;43233;48.608;8.838;2022-12-10T05:25:47;37.43;;;22.00;;
32292;SDS011;43233;48.608;8.838;2022-12-10T05:28:19;37.93;;;21.57;;
32292;SDS011;43233;48.608;8.838;2022-12-10T05:30:46;36.63;;;20.00;;
32292;SDS011;43233;48.608;8.838;2022-12-10T05:33:11;36.63;;;19.17;;
32292;SDS011;43233;48.608;8.838;2022-12-10T05:35:37;37.50;;;21.47;;
32292;SDS011;43233;48.608;8.838;2022-12-10T05:38:03;36.17;;;20.23;;
32292;SDS011;43233;48.608;8.838;2022-12-10T05:40:28;37.70;;;21.80;;
32292;SDS011;43233;48.608;8.838;2022-12-10T05:42:54;38.13;;;20.47;;
32292;SDS011;43233;48.608;8.838;2022-12-10T05:45:20;35.17;;;19.33;;
32292;SDS011;43233;48.608;8.838;2022-12-10T05:47:45;35.53;;;18.30;;
32292;SDS011;43233;48.608;8.838;2022-12-10T05:50:11;39.77;;;20.37;;
32292;SDS011;43233;48.608;8.838;2022-12-10T05:52:36;37.10;;;21.17;;
32292;SDS011;43233;48.608;8.838;2022-12-10T05:55:02;38.17;;;21.70;;
32292;SDS011;43233;48.608;8.838;2022-12-10T05:57:28;38.77;;;21.80;;
32292;SDS011;43233;48.608;8.838;2022-12-10T05:59:54;36.43;;;21.37;;
32292;SDS011;43233;48.608;8.838;2022-12-10T06:02:19;35.90;;;21.23;;
32292;SDS011;43233;48.608;8.838;2022-12-10T06:04:45;35.33;;;19.63;;
32292;SDS011;43233;48.608;8.838;2022-12-10T06:07:10;37.10;;;21.00;;
32292;SDS011;43233;48.608;8.838;2022-12-10T06:09:36;40.03;;;22.07;;
32292;SDS011;43233;48.608;8.838;2022-12-10T06:12:02;32.43;;;19.60;;
32292;SDS011;43233;48.608;8.838;2022-12-10T06:14:27;35.60;;;19.83;;
32292;SDS011;43233;48.608;8.838;2022-12-10T06:16:53;38.53;;;21.10;;
32292;SDS011;43233;48.608;8.838;2022-12-10T06:19:18;37.60;;;21.33;;
32292;SDS011;43233;48.608;8.838;2022-12-10T06:21:44;38.03;;;20.60;;
32292;SDS011;43233;48.608;8.838;2022-12-10T06:24:10;34.90;;;19.70;;
32292;SDS011;43233;48.608;8.838;2022-12-10T06:26:35;41.00;;;20.97;;
32292;SDS011;43233;48.608;8.838;2022-12-10T06:29:01;32.47;;;19.47;;
32292;SDS011;43233;48.608;8.838;2022-12-10T06:31:27;34.90;;;20.10;;
32292;SDS011;43233;48.608;8.838;2022-12-10T06:33:52;35.40;;;19.70;;
32292;SDS011;43233;48.608;8.838;2022-12-10T06:36:19;39.53;;;20.27;;
32292;SDS011;43233;48.608;8.838;2022-12-10T06:38:45;33.20;;;19.47;;
32292;SDS011;43233;48.608;8.838;2022-12-10T06:41:13;30.77;;;18.63;;
32292;SDS011;43233;48.608;8.838;2022-12-10T06:43:40;35.33;;;20.00;;
32292;SDS011;43233;48.608;8.838;2022-12-10T06:46:12;35.93;;;18.77;;
32292;SDS011;43233;48.608;8.838;2022-12-10T06:48:40;36.90;;;19.70;;
32292;SDS011;43233;48.608;8.838;2022-12-10T06:51:06;35.30;;;19.57;;
32292;SDS011;43233;48.608;8.838;2022-12-10T06:53:33;33.10;;;19.20;;
32292;SDS011;43233;48.608;8.838;2022-12-10T06:56:01;33.30;;;18.93;;
32292;SDS011;43233;48.608;8.838;2022-12-10T06:58:28;44.80;;;21.73;;
32292;SDS011;43233;48.608;8.838;2022-12-10T07:01:02;35.73;;;20.03;;
32292;SDS011;43233;48.608;8.838;2022-12-10T07:03:30;36.73;;;19.33;;
32292;SDS011;43233;48.608;8.838;2022-12-10T07:05:57;36.67;;;21.20;;
32292;SDS011;43233;48.608;8.838;2022-12-10T07:08:23;35.17;;;19.33;;
32292;SDS011;43233;48.608;8.838;2022-12-10T07:10:49;33.97;;;21.13;;
32292;SDS011;43233;48.608;8.838;2022-12-10T07:13:14;34.03;;;20.70;;
32292;SDS011;43233;48.608;8.838;2022-12-10T07:15:40;35.07;;;19.07;;
32292;SDS011;43233;48.608;8.838;2022-12-10T07:18:05;45.87;;;23.50;;
32292;SDS011;43233;48.608;8.838;2022-12-10T07:20:31;39.60;;;21.80;;
32292;SDS011;43233;48.608;8.838;2022-12-10T07:22:57;37.47;;;21.30;;
32292;SDS011;43233;48.608;8.838;2022-12-10T07:25:22;31.87;;;19.70;;
32292;SDS011;43233;48.608;8.838;2022-12-10T07:27:48;39.60;;;21.03;;
32292;SDS011;43233;48.608;8.838;2022-12-10T07:30:13;45.47;;;23.50;;
32292;SDS011;43233;48.608;8.838;2022-12-10T07:32:39;37.37;;;21.50;;
32292;SDS011;43233;48.608;8.838;2022-12-10T07:35:05;46.37;;;23.47;;
32292;SDS011;43233;48.608;8.838;2022-12-10T07:37:30;40.27;;;21.50;;
32292;SDS011;43233;48.608;8.838;2022-12-10T07:39:56;41.23;;;22.13;;
32292;SDS011;43233;48.608;8.838;2022-12-10T07:42:22;34.00;;;21.40;;
32292;SDS011;43233;48.608;8.838;2022-12-10T07:44:48;42.83;;;22.17;;
32292;SDS011;43233;48.608;8.838;2022-12-10T07:47:13;36.33;;;20.13;;
32292;SDS011;43233;48.608;8.838;2022-12-10T07:49:39;42.27;;;21.30;;
32292;SDS011;43233;48.608;8.838;2022-12-10T07:52:05;41.20;;;24.20;;
32292;SDS011;43233;48.608;8.838;2022-12-10T07:54:30;32.83;;;19.63;;
32292;SDS011;43233;48.608;8.838;2022-12-10T07:56:56;34.77;;;20.43;;
32292;SDS011;43233;48.608;8.838;2022-12-10T07:59:21;42.43;;;23.30;;
32292;SDS011;43233;48.608;8.838;2022-12-10T08:01:47;42.20;;;21.87;;
32292;SDS011;43233;48.608;8.838;2022-12-10T08:04:14;44.97;;;22.03;;
32292;SDS011;43233;48.608;8.838;2022-12-10T08:06:40;36.37;;;21.37;;
32292;SDS011;43233;48.608;8.838;2022-12-10T08:09:05;37.53;;;21.93;;
32292;SDS011;43233;48.608;8.838;2022-12-10T08:11:31;46.73;;;24.80;;
32292;SDS011;43233;48.608;8.838;2022-12-10T08:13:57;39.83;;;23.47;;
32292;SDS011;43233;48.608;8.838;2022-12-10T08:16:24;36.30;;;21.40;;
32292;SDS011;43233;48.608;8.838;2022-12-10T08:18:51;40.37;;;23.67;;
32292;SDS011;43233;48.608;8.838;2022-12-10T08:21:19;42.03;;;21.50;;
32292;SDS011;43233;48.608;8.838;2022-12-10T08:23:47;37.70;;;21.67;;
32292;SDS011;43233;48.608;8.838;2022-12-10T08:26:14;42.10;;;24.30;;
32292;SDS011;43233;48.608;8.838;2022-12-10T08:28:42;42.80;;;23.47;;
32292;SDS011;43233;48.608;8.838;2022-12-10T08:31:08;41.30;;;23.73;;
32292;SDS011;43233;48.608;8.838;2022-12-10T08:33:36;41.03;;;24.17;;
32292;SDS011;43233;48.608;8.838;2022-12-10T08:36:03;41.83;;;23.27;;
32292;SDS011;43233;48.608;8.838;2022-12-10T08:38:30;38.00;;;21.90;;
32292;SDS011;43233;48.608;8.838;2022-12-10T08:40:56;43.70;;;21.50;;
32292;SDS011;43233;48.608;8.838;2022-12-10T08:43:22;34.17;;;20.23;;
32292;SDS011;43233;48.608;8.838;2022-12-10T08:45:48;32.33;;;19.30;;
32292;SDS011;43233;48.608;8.838;2022-12-10T08:48:13;34.67;;;21.37;;
32292;SDS011;43233;48.608;8.838;2022-12-10T08:50:39;36.17;;;20.50;;
32292;SDS011;43233;48.608;8.838;2022-12-10T08:53:05;39.50;;;22.93;;
32292;SDS011;43233;48.608;8.838;2022-12-10T08:55:30;32.73;;;20.07;;
32292;SDS011;43233;48.608;8.838;2022-12-10T08:57:56;36.20;;;21.80;;
32292;SDS011;43233;48.608;8.838;2022-12-10T09:00:23;37.10;;;21.70;;
32292;SDS011;43233;48.608;8.838;2022-12-10T09:02:50;41.40;;;22.33;;
32292;SDS011;43233;48.608;8.838;2022-12-10T09:05:15;37.57;;;22.07;;
32292;SDS011;43233;48.608;8.838;2022-12-10T09:07:41;42.27;;;24.03;;
32292;SDS011;43233;48.608;8.838;2022-12-10T09:10:08;34.77;;;20.50;;
32292;SDS011;43233;48.608;8.838;2022-12-10T09:12:36;34.87;;;19.97;;
32292;SDS011;43233;48.608;8.838;2022-12-10T09:15:01;36.00;;;19.93;;
32292;SDS011;43233;48.608;8.838;2022-12-10T09:17:28;34.70;;;21.87;;
32292;SDS011;43233;48.608;8.838;2022-12-10T09:19:53;39.37;;;20.50;;
32292;SDS011;43233;48.608;8.838;2022-12-10T09:22:19;34.03;;;19.50;;
32292;SDS011;43233;48.608;8.838;2022-12-10T09:24:44;45.57;;;20.50;;
32292;SDS011;43233;48.608;8.838;2022-12-10T09:27:10;35.30;;;20.70;;
32292;SDS011;43233;48.608;8.838;2022-12-10T09:29:36;34.23;;;20.60;;
32292;SDS011;43233;48.608;8.838;2022-12-10T09:32:01;33.50;;;19.23;;
32292;SDS011;43233;48.608;8.838;2022-12-10T09:34:27;35.10;;;19.50;;
32292;SDS011;43233;48.608;8.838;2022-12-10T09:36:53;36.50;;;21.10;;
32292;SDS011;43233;48.608;8.838;2022-12-10T09:39:18;38.23;;;21.43;;
32292;SDS011;43233;48.608;8.838;2022-12-10T09:47:24;36.57;;;20.80;;
32292;SDS011;43233;48.608;8.838;2022-12-10T09:50:12;32.17;;;18.90;;
32292;SDS011;43233;48.608;8.838;2022-12-10T09:52:43;32.33;;;19.10;;
32292;SDS011;43233;48.608;8.838;2022-12-10T09:55:16;34.40;;;19.70;;
32292;SDS011;43233;48.608;8.838;2022-12-10T09:57:46;37.17;;;21.13;;
32292;SDS011;43233;48.608;8.838;2022-12-10T10:02:47;35.83;;;23.43;;
32292;SDS011;43233;48.608;8.838;2022-12-10T10:05:24;36.17;;;21.70;;
32292;SDS011;43233;48.608;8.838;2022-12-10T10:07:55;38.07;;;22.17;;
32292;SDS011;43233;48.608;8.838;2022-12-10T10:12:51;34.30;;;21.20;;
32292;SDS011;43233;48.608;8.838;2022-12-10T10:15:22;39.97;;;21.90;;
32292;SDS011;43233;48.608;8.838;2022-12-10T10:17:52;33.17;;;20.60;;
32292;SDS011;43233;48.608;8.838;2022-12-10T10:20:20;34.03;;;20.30;;
32292;SDS011;43233;48.608;8.838;2022-12-10T10:22:46;39.53;;;21.70;;
32292;SDS011;43233;48.608;8.838;2022-12-10T10:25:16;39.07;;;20.93;;
32292;SDS011;43233;48.608;8.838;2022-12-10T10:27:44;39.50;;;22.03;;
32292;SDS011;43233;48.608;8.838;2022-12-10T10:30:14;33.10;;;18.90;;
32292;SDS011;43233;48.608;8.838;2022-12-10T10:35:18;32.70;;;19.77;;
32292;SDS011;43233;48.608;8.838;2022-12-10T10:37:47;36.90;;;21.73;;
32292;SDS011;43233;48.608;8.838;2022-12-10T10:40:22;29.10;;;18.70;;
32292;SDS011;43233;48.608;8.838;2022-12-10T10:42:52;34.70;;;20.90;;
32292;SDS011;43233;48.608;8.838;2022-12-10T10:45:42;37.00;;;21.97;;
32292;SDS011;43233;48.608;8.838;2022-12-10T10:48:13;31.93;;;19.37;;
32292;SDS011;43233;48.608;8.838;2022-12-10T10:50:42;35.20;;;20.17;;
32292;SDS011;43233;48.608;8.838;2022-12-10T10:55:53;40.47;;;21.03;;
32292;SDS011;43233;48.608;8.838;2022-12-10T10:58:21;33.63;;;19.40;;
32292;SDS011;43233;48.608;8.838;2022-12-10T11:00:55;34.90;;;19.30;;
32292;SDS011;43233;48.608;8.838;2022-12-10T11:03:26;35.97;;;19.63;;
32292;SDS011;43233;48.608;8.838;2022-12-10T11:05:54;30.90;;;17.83;;
32292;SDS011;43233;48.608;8.838;2022-12-10T11:08:21;29.00;;;18.10;;
32292;SDS011;43233;48.608;8.838;2022-12-10T11:10:52;28.77;;;18.57;;
32292;SDS011;43233;48.608;8.838;2022-12-10T11:13:25;36.00;;;18.67;;
32292;SDS011;43233;48.608;8.838;2022-12-10T11:18:37;34.57;;;18.33;;
32292;SDS011;43233;48.608;8.838;2022-12-10T11:23:45;34.93;;;19.37;;
32292;SDS011;43233;48.608;8.838;2022-12-10T11:31:39;34.23;;;19.50;;
32292;SDS011;43233;48.608;8.838;2022-12-10T11:36:58;33.27;;;19.57;;
32292;SDS011;43233;48.608;8.838;2022-12-10T11:42:24;30.33;;;17.40;;
32292;SDS011;43233;48.608;8.838;2022-12-10T11:48:06;33.80;;;19.20;;
32292;SDS011;43233;48.608;8.838;2022-12-10T11:50:47;34.10;;;19.80;;
32292;SDS011;43233;48.608;8.838;2022-12-10T11:56:15;32.90;;;17.50;;
32292;SDS011;43233;48.608;8.838;2022-12-10T11:58:49;29.23;;;15.57;;
32292;SDS011;43233;48.608;8.838;2022-12-10T12:01:27;32.20;;;17.50;;
32292;SDS011;43233;48.608;8.838;2022-12-10T12:10:20;28.33;;;16.30;;
32292;SDS011;43233;48.608;8.838;2022-12-10T12:13:11;31.97;;;17.17;;
32292;SDS011;43233;48.608;8.838;2022-12-10T12:18:16;22.70;;;14.87;;
32292;SDS011;43233;48.608;8.838;2022-12-10T12:21:00;30.10;;;16.90;;
32292;SDS011;43233;48.608;8.838;2022-12-10T12:23:34;30.00;;;17.07;;
32292;SDS011;43233;48.608;8.838;2022-12-10T12:28:52;23.77;;;15.23;;
32292;SDS011;43233;48.608;8.838;2022-12-10T12:31:29;30.60;;;18.00;;
32292;SDS011;43233;48.608;8.838;2022-12-10T12:34:01;26.33;;;17.20;;
32292;SDS011;43233;48.608;8.838;2022-12-10T12:36:30;29.60;;;19.30;;
32292;SDS011;43233;48.608;8.838;2022-12-10T12:39:05;27.40;;;17.00;;
32292;SDS011;43233;48.608;8.838;2022-12-10T12:49:52;30.30;;;15.40;;
32292;SDS011;43233;48.608;8.838;2022-12-10T12:52:26;26.17;;;16.23;;
32292;SDS011;43233;48.608;8.838;2022-12-10T12:54:55;29.27;;;16.20;;
32292;SDS011;43233;48.608;8.838;2022-12-10T13:00:10;23.53;;;14.83;;
32292;SDS011;43233;48.608;8.838;2022-12-10T13:02:53;22.97;;;13.70;;
32292;SDS011;43233;48.608;8.838;2022-12-10T13:05:31;20.30;;;13.50;;
32292;SDS011;43233;48.608;8.838;2022-12-10T13:13:40;24.30;;;14.33;;
32292;SDS011;43233;48.608;8.838;2022-12-10T13:24:18;25.00;;;16.27;;
32292;SDS011;43233;48.608;8.838;2022-12-10T13:29:42;28.97;;;15.97;;
32292;SDS011;43233;48.608;8.838;2022-12-10T13:33:11;24.73;;;14.67;;
32292;SDS011;43233;48.608;8.838;2022-12-10T13:48:59;25.13;;;14.87;;
32292;SDS011;43233;48.608;8.838;2022-12-10T13:53:59;20.37;;;13.70;;
32292;SDS011;43233;48.608;8.838;2022-12-10T14:02:00;22.40;;;13.93;;
32292;SDS011;43233;48.608;8.838;2022-12-10T14:04:51;31.30;;;16.20;;
32292;SDS011;43233;48.608;8.838;2022-12-10T14:07:25;21.73;;;13.40;;
32292;SDS011;43233;48.608;8.838;2022-12-10T14:09:52;26.60;;;16.30;;
32292;SDS011;43233;48.608;8.838;2022-12-10T14:12:24;25.83;;;14.70;;
32292;SDS011;43233;48.608;8.838;2022-12-10T14:14:57;24.70;;;14.40;;
32292;SDS011;43233;48.608;8.838;2022-12-10T14:17:37;29.57;;;17.13;;
32292;SDS011;43233;48.608;8.838;2022-12-10T14:20:06;27.20;;;15.20;;
32292;SDS011;43233;48.608;8.838;2022-12-10T14:22:37;27.97;;;15.10;;
32292;SDS011;43233;48.608;8.838;2022-12-10T14:25:12;25.90;;;15.50;;
32292;SDS011;43233;48.608;8.838;2022-12-10T14:27:40;25.20;;;15.47;;
32292;SDS011;43233;48.608;8.838;2022-12-10T14:30:14;24.17;;;15.37;;
32292;SDS011;43233;48.608;8.838;2022-12-10T14:32:45;20.37;;;13.43;;
32292;SDS011;43233;48.608;8.838;2022-12-10T14:35:16;28.67;;;16.37;;
32292;SDS011;43233;48.608;8.838;2022-12-10T14:37:47;20.53;;;12.87;;
32292;SDS011;43233;48.608;8.838;2022-12-10T14:40:18;26.13;;;13.73;;
32292;SDS011;43233;48.608;8.838;2022-12-10T14:42:50;21.37;;;13.37;;
32292;SDS011;43233;48.608;8.838;2022-12-10T14:45:18;23.00;;;14.50;;
32292;SDS011;43233;48.608;8.838;2022-12-10T14:47:44;22.17;;;14.10;;
32292;SDS011;43233;48.608;8.838;2022-12-10T14:50:13;30.33;;;16.20;;
32292;SDS011;43233;48.608;8.838;2022-12-10T14:52:41;26.80;;;16.47;;
32292;SDS011;43233;48.608;8.838;2022-12-10T14:55:12;22.97;;;14.37;;
32292;SDS011;43233;48.608;8.838;2022-12-10T14:57:42;26.43;;;14.93;;
32292;SDS011;43233;48.608;8.838;2022-12-10T15:00:14;29.37;;;16.90;;
32292;SDS011;43233;48.608;8.838;2022-12-10T15:02:46;28.33;;;17.77;;
32292;SDS011;43233;48.608;8.838;2022-12-10T15:05:18;34.17;;;17.90;;
32292;SDS011;43233;48.608;8.838;2022-12-10T15:07:54;34.33;;;19.40;;
32292;SDS011;43233;48.608;8.838;2022-12-10T15:10:31;30.33;;;17.40;;
32292;SDS011;43233;48.608;8.838;2022-12-10T15:13:05;24.27;;;16.50;;
32292;SDS011;43233;48.608;8.838;2022-12-10T15:15:37;32.73;;;17.53;;
32292;SDS011;43233;48.608;8.838;2022-12-10T15:20:50;33.20;;;18.73;;
32292;SDS011;43233;48.608;8.838;2022-12-10T15:26:32;29.27;;;17.37;;
32292;SDS011;43233;48.608;8.838;2022-12-10T15:28:40;32.43;;;18.27;;
32292;SDS011;43233;48.608;8.838;2022-12-10T15:33:52;30.50;;;18.00;;
32292;SDS011;43233;48.608;8.838;2022-12-10T15:36:36;31.80;;;18.23;;
32292;SDS011;43233;48.608;8.838;2022-12-10T15:39:23;23.37;;;16.40;;
32292;SDS011;43233;48.608;8.838;2022-12-10T15:41:55;31.40;;;18.33;;
32292;SDS011;43233;48.608;8.838;2022-12-10T15:44:38;26.20;;;16.33;;
32292;SDS011;43233;48.608;8.838;2022-12-10T15:47:20;29.03;;;16.83;;
32292;SDS011;43233;48.608;8.838;2022-12-10T15:49:49;26.90;;;17.43;;
32292;SDS011;43233;48.608;8.838;2022-12-10T15:52:17;32.07;;;17.03;;
32292;SDS011;43233;48.608;8.838;2022-12-10T15:54:45;28.17;;;16.07;;
32292;SDS011;43233;48.608;8.838;2022-12-10T15:59:46;27.17;;;16.17;;
32292;SDS011;43233;48.608;8.838;2022-12-10T16:05:13;31.87;;;19.30;;
32292;SDS011;43233;48.608;8.838;2022-12-10T16:07:40;27.53;;;17.43;;
32292;SDS011;43233;48.608;8.838;2022-12-10T16:10:07;29.47;;;18.20;;
32292;SDS011;43233;48.608;8.838;2022-12-10T16:12:35;26.50;;;18.00;;
32292;SDS011;43233;48.608;8.838;2022-12-10T16:15:02;29.57;;;17.90;;
32292;SDS011;43233;48.608;8.838;2022-12-10T16:17:32;25.90;;;17.23;;
32292;SDS011;43233;48.608;8.838;2022-12-10T16:19:58;50.10;;;26.83;;
32292;SDS011;43233;48.608;8.838;2022-12-10T16:22:34;46.10;;;25.20;;
32292;SDS011;43233;48.608;8.838;2022-12-10T16:24:59;37.77;;;24.20;;
32292;SDS011;43233;48.608;8.838;2022-12-10T16:27:29;33.83;;;20.53;;
32292;SDS011;43233;48.608;8.838;2022-12-10T16:29:57;40.40;;;22.30;;
32292;SDS011;43233;48.608;8.838;2022-12-10T16:32:23;32.70;;;19.23;;
32292;SDS011;43233;48.608;8.838;2022-12-10T16:34:48;24.47;;;15.03;;
32292;SDS011;43233;48.608;8.838;2022-12-10T16:37:15;27.23;;;15.90;;